createdAt,value
2022-10-23T00:01:57.460Z,47.45
2022-10-23T00:04:26.043Z,47.55
2022-10-23T00:06:53.203Z,47.73
2022-10-23T00:09:22.862Z,47.84
2022-10-23T00:11:51.985Z,47.84
2022-10-23T00:14:22.585Z,47.93
2022-10-23T00:16:50.139Z,48.16
2022-10-23T00:19:17.785Z,48.56
2022-10-23T00:21:46.440Z,47.91
2022-10-23T00:24:13.530Z,47.33
2022-10-23T00:26:41.328Z,47.62
2022-10-23T00:29:09.561Z,47.87
2022-10-23T00:31:36.685Z,47.96
2022-10-23T00:34:04.119Z,47.71
2022-10-23T00:36:31.234Z,48.07
2022-10-23T00:38:59.824Z,47.61
2022-10-23T00:41:28.981Z,48.14
2022-10-23T00:44:00.041Z,47.31
2022-10-23T00:46:27.361Z,47.60
2022-10-23T00:48:54.701Z,47.80
2022-10-23T00:51:22.621Z,47.76
2022-10-23T00:54:01.408Z,47.51
2022-10-23T00:56:45.948Z,46.99
2022-10-23T00:59:13.503Z,47.46
2022-10-23T01:01:41.437Z,47.64
2022-10-23T01:04:10.193Z,47.30
2022-10-23T01:06:42.582Z,47.47
2022-10-23T01:09:18.680Z,47.25
2022-10-23T01:11:55.625Z,47.36
2022-10-23T01:14:32.000Z,47.24
2022-10-23T01:17:09.560Z,47.18
2022-10-23T01:19:56.200Z,47.72
2022-10-23T01:22:45.304Z,47.22
2022-10-23T01:25:28.659Z,55.08
2022-10-23T01:28:05.021Z,54.45
2022-10-23T01:30:36.148Z,54.64
2022-10-23T01:33:10.121Z,53.22
2022-10-23T01:35:46.042Z,51.94
2022-10-23T01:38:19.859Z,51.25
2022-10-23T01:40:55.761Z,50.60
2022-10-23T01:43:29.480Z,49.56
2022-10-23T01:46:01.799Z,49.67
2022-10-23T01:48:32.219Z,48.34
2022-10-23T01:51:06.141Z,48.24
2022-10-23T01:53:39.379Z,48.70
2022-10-23T01:56:11.582Z,48.56
2022-10-23T01:58:46.059Z,48.41
2022-10-23T02:01:18.484Z,47.27
2022-10-23T02:03:48.567Z,47.44
2022-10-23T02:06:16.040Z,47.95
2022-10-23T02:08:43.462Z,47.58
2022-10-23T02:11:14.279Z,47.43
2022-10-23T02:13:51.942Z,47.57
2022-10-23T02:16:29.741Z,47.06
2022-10-23T02:19:11.142Z,47.86
2022-10-23T02:21:50.501Z,47.25
2022-10-23T02:24:25.639Z,47.49
2022-10-23T02:26:56.101Z,47.45
2022-10-23T02:29:31.087Z,46.93
2022-10-23T02:31:58.501Z,47.17
2022-10-23T02:34:25.540Z,47.09
2022-10-23T02:36:53.022Z,46.97
2022-10-23T02:39:21.422Z,47.44
2022-10-23T02:41:56.540Z,48.04
2022-10-23T02:44:39.243Z,47.36
2022-10-23T02:47:21.581Z,47.57
2022-10-23T02:50:02.821Z,46.83
2022-10-23T02:52:41.786Z,47.28
2022-10-23T02:55:27.760Z,47.06
2022-10-23T02:58:01.900Z,47.31
2022-10-23T03:00:33.195Z,47.52
2022-10-23T03:03:10.141Z,46.75
2022-10-23T03:05:41.520Z,46.96
2022-10-23T03:08:10.419Z,47.05
2022-10-23T03:10:37.824Z,46.35
2022-10-23T03:13:04.960Z,46.56
2022-10-23T03:15:33.542Z,46.99
2022-10-23T03:18:00.641Z,46.54
2022-10-23T03:20:27.720Z,46.96
2022-10-23T03:22:54.779Z,47.08
2022-10-23T03:25:21.807Z,47.27
2022-10-23T03:27:48.820Z,47.06
2022-10-23T03:30:17.102Z,46.97
2022-10-23T03:32:45.937Z,47.11
2022-10-23T03:35:13.181Z,47.15
2022-10-23T03:37:40.270Z,46.85
2022-10-23T03:40:09.120Z,47.28
2022-10-23T03:42:36.160Z,47.26
2022-10-23T03:45:03.822Z,47.01
2022-10-23T03:47:31.099Z,46.83
2022-10-23T03:49:59.660Z,46.91
2022-10-23T03:52:26.851Z,46.48
2022-10-23T03:54:53.981Z,46.51
2022-10-23T03:57:21.060Z,47.26
2022-10-23T03:59:48.122Z,47.60
2022-10-23T04:02:15.298Z,47.45
2022-10-23T04:04:42.464Z,46.38
2022-10-23T04:07:11.122Z,46.74
2022-10-23T04:09:38.380Z,47.40
2022-10-23T04:12:06.445Z,47.15
2022-10-23T04:14:33.484Z,46.92
2022-10-23T04:17:00.561Z,47.10
2022-10-23T04:19:27.760Z,46.98
2022-10-23T04:21:54.860Z,46.47
2022-10-23T04:24:23.421Z,46.76
2022-10-23T04:26:50.581Z,46.85
2022-10-23T04:29:18.181Z,46.80
2022-10-23T04:31:45.350Z,47.07
2022-10-23T04:34:12.401Z,47.19
2022-10-23T04:36:39.481Z,47.04
2022-10-23T04:39:06.542Z,47.40
2022-10-23T04:41:35.142Z,47.25
2022-10-23T04:44:02.159Z,47.18
2022-10-23T04:46:29.224Z,47.06
2022-10-23T04:48:56.339Z,46.83
2022-10-23T04:51:23.442Z,46.48
2022-10-23T04:53:50.500Z,46.64
2022-10-23T04:56:17.543Z,46.40
2022-10-23T04:58:46.064Z,47.00
2022-10-23T05:01:13.290Z,47.38
2022-10-23T05:03:40.479Z,47.29
2022-10-23T05:06:07.721Z,47.35
2022-10-23T05:08:34.781Z,47.12
2022-10-23T05:11:01.881Z,47.53
2022-10-23T05:13:29.179Z,47.04
2022-10-23T05:15:59.421Z,47.26
2022-10-23T05:18:32.662Z,47.32
2022-10-23T05:21:05.361Z,47.29
2022-10-23T05:23:37.100Z,47.44
2022-10-23T05:26:05.041Z,47.62
2022-10-23T05:28:32.161Z,47.22
2022-10-23T05:31:04.833Z,47.70
2022-10-23T05:33:34.960Z,47.08
2022-10-23T05:36:03.203Z,47.02
2022-10-23T05:38:34.989Z,47.20
2022-10-23T05:41:02.261Z,47.65
2022-10-23T05:43:29.421Z,47.37
2022-10-23T05:45:56.440Z,47.24
2022-10-23T05:48:34.265Z,47.42
2022-10-23T05:51:06.692Z,47.79
2022-10-23T05:53:36.103Z,47.76
2022-10-23T05:56:07.401Z,47.68
2022-10-23T05:58:34.780Z,47.64
2022-10-23T06:01:05.740Z,47.53
2022-10-23T06:03:34.693Z,47.65
2022-10-23T06:06:01.967Z,47.14
2022-10-23T06:08:30.362Z,47.20
2022-10-23T06:10:57.501Z,46.96
2022-10-23T06:13:24.940Z,47.28
2022-10-23T06:15:52.022Z,47.19
2022-10-23T06:18:19.201Z,47.93
2022-10-23T06:20:47.721Z,47.66
2022-10-23T06:23:14.884Z,47.61
2022-10-23T06:25:41.880Z,47.65
2022-10-23T06:28:08.922Z,47.66
2022-10-23T06:33:11.182Z,47.57
2022-10-23T06:35:38.221Z,47.47
2022-10-23T06:38:06.682Z,47.66
2022-10-23T06:40:33.682Z,47.91
2022-10-23T06:43:00.760Z,47.91
2022-10-23T06:45:27.862Z,48.17
2022-10-23T06:47:54.959Z,47.56
2022-10-23T06:50:22.561Z,47.90
2022-10-23T06:52:49.641Z,47.78
2022-10-23T06:55:18.406Z,48.17
2022-10-23T06:57:45.848Z,48.10
2022-10-23T07:00:13.964Z,47.89
2022-10-23T07:02:41.508Z,48.23
2022-10-23T07:05:12.777Z,47.67
2022-10-23T07:07:41.063Z,48.18
2022-10-23T07:10:08.725Z,48.05
2022-10-23T07:12:37.303Z,48.17
2022-10-23T07:15:05.361Z,48.80
2022-10-23T07:17:32.362Z,48.35
2022-10-23T07:19:59.348Z,48.09
2022-10-23T07:22:26.361Z,48.03
2022-10-23T07:24:53.420Z,47.93
2022-10-23T07:27:20.481Z,46.91
2022-10-23T07:29:52.620Z,47.70
2022-10-23T07:32:19.881Z,47.27
2022-10-23T07:34:47.005Z,47.41
2022-10-23T07:37:14.041Z,47.03
2022-10-23T07:39:41.122Z,46.75
2022-10-23T07:42:10.125Z,46.89
2022-10-23T07:44:37.201Z,46.59
2022-10-23T07:47:05.720Z,45.77
2022-10-23T07:49:32.762Z,46.54
2022-10-23T07:51:59.882Z,44.97
2022-10-23T07:54:27.122Z,44.53
2022-10-23T07:56:54.201Z,43.99
2022-10-23T07:59:21.281Z,44.18
2022-10-23T08:01:50.553Z,44.18
2022-10-23T08:04:21.382Z,43.98
2022-10-23T08:06:48.901Z,44.25
2022-10-23T08:09:15.900Z,45.16
2022-10-23T08:11:44.022Z,45.01
2022-10-23T08:14:11.081Z,45.66
2022-10-23T08:16:39.604Z,44.80
2022-10-23T08:19:08.342Z,44.63
2022-10-23T08:21:36.842Z,44.75
2022-10-23T08:24:04.741Z,44.89
2022-10-23T08:26:31.901Z,44.82
2022-10-23T08:28:59.902Z,45.28
2022-10-23T08:31:28.161Z,45.04
2022-10-23T08:33:55.346Z,45.14
2022-10-23T08:36:24.721Z,44.36
2022-10-23T08:38:55.660Z,44.22
2022-10-23T08:41:27.582Z,44.41
2022-10-23T08:44:02.458Z,44.47
2022-10-23T08:46:34.783Z,43.58
2022-10-23T08:49:21.102Z,43.05
2022-10-23T08:51:52.621Z,42.65
2022-10-23T08:54:26.781Z,42.63
2022-10-23T08:57:01.323Z,42.20
2022-10-23T08:59:35.483Z,42.08
2022-10-23T09:02:14.861Z,41.64
2022-10-23T09:04:47.561Z,41.18
2022-10-23T09:07:30.323Z,41.27
2022-10-23T09:10:17.343Z,41.05
2022-10-23T09:12:44.621Z,41.33
2022-10-23T09:15:22.440Z,41.08
2022-10-23T09:17:57.701Z,40.48
2022-10-23T09:20:27.683Z,39.54
2022-10-23T09:22:58.402Z,40.58
2022-10-23T09:25:30.302Z,40.75
2022-10-23T09:28:01.637Z,40.26
2022-10-23T09:30:34.809Z,39.92
2022-10-23T09:33:14.101Z,39.47
2022-10-23T09:35:54.161Z,39.80
2022-10-23T09:38:29.821Z,40.52
2022-10-23T09:41:00.522Z,39.68
2022-10-23T09:43:28.021Z,40.27
2022-10-23T09:46:00.642Z,40.28
2022-10-23T09:48:28.741Z,41.15
2022-10-23T09:50:57.483Z,41.67
2022-10-23T09:53:33.183Z,42.33
2022-10-23T09:56:04.382Z,42.71
2022-10-23T09:58:36.082Z,41.90
2022-10-23T10:01:04.420Z,42.49
2022-10-23T10:03:32.062Z,43.61
2022-10-23T10:06:01.403Z,43.80
2022-10-23T10:08:43.933Z,44.57
2022-10-23T10:11:20.702Z,44.63
2022-10-23T10:14:19.081Z,45.12
2022-10-23T10:16:54.387Z,45.21
2022-10-23T10:19:36.621Z,45.12
2022-10-23T10:22:17.141Z,45.57
2022-10-23T10:24:53.520Z,43.34
2022-10-23T10:27:38.341Z,45.02
2022-10-23T10:30:13.368Z,46.67
2022-10-23T10:32:47.081Z,43.88
2022-10-23T10:35:25.088Z,44.12
2022-10-23T10:38:20.223Z,44.71
2022-10-23T10:41:06.902Z,44.06
2022-10-23T10:43:47.863Z,45.04
2022-10-23T10:46:26.992Z,44.98
2022-10-23T10:49:01.885Z,45.50
2022-10-23T10:51:34.867Z,44.59
2022-10-23T10:54:18.520Z,45.52
2022-10-23T10:56:48.462Z,45.09
2022-10-23T10:59:24.063Z,45.04
2022-10-23T11:01:59.517Z,45.16
2022-10-23T11:04:36.920Z,45.75
2022-10-23T11:07:11.445Z,45.12
2022-10-23T11:09:39.443Z,45.32
2022-10-23T11:12:06.781Z,43.54
2022-10-23T11:14:35.540Z,46.35
2022-10-23T11:17:11.261Z,47.25
2022-10-23T11:19:45.642Z,48.82
2022-10-23T11:22:26.200Z,47.59
2022-10-23T11:25:26.482Z,48.04
2022-10-23T11:28:17.522Z,47.72
2022-10-23T11:31:11.558Z,45.51
2022-10-23T11:34:12.461Z,47.43
2022-10-23T11:36:50.883Z,45.19
2022-10-23T11:39:25.642Z,46.48
2022-10-23T11:41:55.963Z,46.00
2022-10-23T11:44:27.420Z,46.13
2022-10-23T11:47:04.701Z,46.53
2022-10-23T11:49:32.210Z,44.66
2022-10-23T11:52:05.601Z,45.34
2022-10-23T11:54:32.761Z,46.12
2022-10-23T11:57:12.362Z,45.53
2022-10-23T11:59:54.964Z,45.83
2022-10-23T12:02:32.595Z,45.88
2022-10-23T12:05:05.683Z,45.05
2022-10-23T12:07:37.383Z,45.73
2022-10-23T12:10:08.262Z,45.35
2022-10-23T12:12:37.142Z,45.46
2022-10-23T12:15:22.583Z,45.85
2022-10-23T12:17:52.782Z,45.04
2022-10-23T12:20:28.325Z,45.11
2022-10-23T12:23:15.753Z,45.60
2022-10-23T12:26:02.745Z,45.08
2022-10-23T12:28:40.002Z,46.30
2022-10-23T12:31:25.441Z,45.86
2022-10-23T12:34:06.962Z,46.03
2022-10-23T12:36:57.661Z,45.85
2022-10-23T12:39:29.243Z,45.23
2022-10-23T12:41:57.641Z,44.38
2022-10-23T12:44:26.373Z,44.17
2022-10-23T12:46:57.480Z,44.83
2022-10-23T12:49:29.301Z,45.21
2022-10-23T12:51:58.321Z,45.08
2022-10-23T12:54:25.623Z,45.19
2022-10-23T12:56:54.201Z,46.56
2022-10-23T12:59:25.481Z,46.99
2022-10-23T13:01:53.860Z,45.83
2022-10-23T13:04:29.499Z,46.42
2022-10-23T13:06:58.781Z,46.22
2022-10-23T13:09:32.181Z,46.62
2022-10-23T13:12:02.742Z,47.03
2022-10-23T13:14:39.426Z,47.05
2022-10-23T13:17:11.883Z,47.31
2022-10-23T13:19:40.360Z,46.81
2022-10-23T13:22:19.661Z,47.40
2022-10-23T13:24:47.619Z,46.83
2022-10-23T13:27:26.806Z,48.19
2022-10-23T13:29:54.084Z,48.60
2022-10-23T13:32:25.401Z,49.15
2022-10-23T13:35:04.062Z,48.27
2022-10-23T13:40:23.942Z,44.22
2022-10-23T13:42:52.101Z,44.43
2022-10-23T13:45:22.109Z,44.96
2022-10-23T13:47:49.721Z,46.51
2022-10-23T13:50:18.562Z,47.05
2022-10-23T13:52:46.062Z,47.36
2022-10-23T13:55:22.424Z,48.05
2022-10-23T13:57:49.621Z,47.53
2022-10-23T14:00:17.704Z,48.42
2022-10-23T14:02:45.054Z,48.68
2022-10-23T14:05:12.447Z,46.66
2022-10-23T14:07:41.101Z,47.01
2022-10-23T14:10:08.802Z,46.62
2022-10-23T14:12:40.633Z,46.93
2022-10-23T14:15:09.261Z,47.68
2022-10-23T14:17:36.541Z,49.41
2022-10-23T14:20:06.092Z,48.97
2022-10-23T14:22:33.645Z,48.15
2022-10-23T14:25:02.121Z,46.34
2022-10-23T14:27:30.243Z,45.08
2022-10-23T14:29:57.281Z,46.24
2022-10-23T14:32:24.363Z,44.84
2022-10-23T14:34:55.225Z,45.38
2022-10-23T14:37:22.622Z,46.10
2022-10-23T14:39:50.418Z,46.76
2022-10-23T14:42:19.101Z,47.02
2022-10-23T14:44:46.144Z,47.01
2022-10-23T14:47:13.142Z,46.99
2022-10-23T14:49:40.439Z,47.14
2022-10-23T14:52:08.377Z,47.97
2022-10-23T14:54:35.643Z,48.45
2022-10-23T14:57:03.474Z,48.89
2022-10-23T14:59:32.003Z,48.43
2022-10-23T15:01:59.045Z,48.40
2022-10-23T15:04:26.703Z,48.58
2022-10-23T15:06:53.822Z,48.49
2022-10-23T15:09:20.942Z,48.79
2022-10-23T15:11:48.174Z,48.06
2022-10-23T15:14:15.261Z,47.02
2022-10-23T15:16:43.826Z,46.34
2022-10-23T15:19:17.133Z,45.57
2022-10-23T15:21:46.121Z,50.74
2022-10-23T15:24:13.322Z,44.05
2022-10-23T15:26:40.382Z,43.48
2022-10-23T15:29:07.423Z,43.73
2022-10-23T15:31:44.525Z,43.16
2022-10-23T15:34:13.684Z,43.59
2022-10-23T15:36:41.241Z,43.75
2022-10-23T15:39:09.923Z,43.81
2022-10-23T15:41:40.124Z,44.00
2022-10-23T15:44:08.942Z,44.55
2022-10-23T15:46:36.184Z,44.90
2022-10-23T15:49:05.042Z,45.85
2022-10-23T15:51:32.263Z,44.83
2022-10-23T15:53:59.343Z,45.78
2022-10-23T15:56:26.626Z,46.12
2022-10-23T15:58:53.691Z,45.38
2022-10-23T16:01:20.929Z,45.11
2022-10-23T16:03:48.102Z,44.52
2022-10-23T16:06:17.905Z,44.89
2022-10-23T16:08:46.144Z,42.12
2022-10-23T16:11:16.282Z,45.98
2022-10-23T16:13:43.444Z,42.77
2022-10-23T16:16:11.242Z,43.12
2022-10-23T16:18:38.302Z,44.13
2022-10-23T16:21:05.782Z,45.04
2022-10-23T16:23:34.942Z,45.64
2022-10-23T16:26:04.162Z,45.79
2022-10-23T16:28:31.662Z,45.79
2022-10-23T16:31:00.383Z,45.88
2022-10-23T16:33:27.483Z,47.68
2022-10-23T16:35:54.522Z,47.86
2022-10-23T16:38:21.562Z,44.89
2022-10-23T16:40:53.542Z,44.10
2022-10-23T16:43:20.721Z,43.47
2022-10-23T16:45:47.781Z,43.12
2022-10-23T16:48:15.062Z,42.78
2022-10-23T16:50:42.145Z,42.80
2022-10-23T16:53:09.283Z,43.22
2022-10-23T16:55:40.602Z,43.66
2022-10-23T16:58:09.163Z,43.03
2022-10-23T17:00:36.222Z,43.44
2022-10-23T17:03:05.038Z,42.74
2022-10-23T17:05:34.102Z,44.09
2022-10-23T17:08:01.474Z,43.43
2022-10-23T17:10:28.601Z,42.89
2022-10-23T17:12:55.682Z,42.73
2022-10-23T17:15:24.226Z,42.84
2022-10-23T17:17:51.261Z,42.82
2022-10-23T17:20:18.484Z,43.00
2022-10-23T17:22:45.501Z,43.57
2022-10-23T17:25:12.668Z,43.79
2022-10-23T17:27:39.816Z,44.16
2022-10-23T17:30:12.407Z,44.74
2022-10-23T17:32:41.532Z,45.62
2022-10-23T17:35:09.362Z,45.58
2022-10-23T17:37:36.364Z,45.92
2022-10-23T17:40:03.862Z,45.83
2022-10-23T17:42:31.201Z,47.11
2022-10-23T17:44:58.341Z,47.35
2022-10-23T17:47:25.481Z,47.78
2022-10-23T17:49:54.037Z,48.27
2022-10-23T17:52:21.141Z,48.63
2022-10-23T17:54:51.921Z,48.69
2022-10-23T17:57:19.131Z,48.77
2022-10-23T17:59:46.381Z,48.91
2022-10-23T18:02:13.530Z,49.46
2022-10-23T18:04:40.663Z,50.00
2022-10-23T18:07:09.308Z,50.00
2022-10-23T18:09:36.389Z,50.17
2022-10-23T18:12:03.701Z,50.46
2022-10-23T18:14:32.466Z,50.78
2022-10-23T18:17:00.801Z,50.60
2022-10-23T18:19:27.883Z,50.54
2022-10-23T18:21:54.900Z,50.56
2022-10-23T18:24:23.402Z,50.25
2022-10-23T18:26:50.443Z,50.49
2022-10-23T18:29:18.528Z,50.33
2022-10-23T18:31:47.082Z,50.74
2022-10-23T18:34:17.121Z,50.95
2022-10-23T18:36:44.534Z,50.51
2022-10-23T18:39:14.864Z,51.08
2022-10-23T18:41:45.760Z,50.98
2022-10-23T18:44:16.610Z,51.07
2022-10-23T18:46:44.261Z,51.11
2022-10-23T18:49:11.943Z,51.29
2022-10-23T18:51:39.561Z,50.84
2022-10-23T18:54:11.110Z,51.07
2022-10-23T18:56:38.245Z,51.52
2022-10-23T18:59:10.178Z,52.17
2022-10-23T19:01:37.393Z,51.42
2022-10-23T19:04:05.062Z,51.43
2022-10-23T19:06:34.604Z,50.43
2022-10-23T19:09:01.867Z,51.28
2022-10-23T19:11:29.433Z,50.39
2022-10-23T19:13:56.627Z,51.09
2022-10-23T19:16:30.542Z,52.58
2022-10-23T19:19:02.982Z,51.56
2022-10-23T19:21:36.749Z,50.68
2022-10-23T19:24:08.721Z,51.79
2022-10-23T19:26:39.782Z,52.37
2022-10-23T19:29:10.445Z,51.57
2022-10-23T19:31:39.700Z,51.78
2022-10-23T19:34:06.719Z,51.82
2022-10-23T19:36:33.796Z,51.61
2022-10-23T19:39:00.842Z,51.10
2022-10-23T19:41:27.881Z,51.62
2022-10-23T19:43:54.961Z,51.68
2022-10-23T19:46:22.103Z,52.07
2022-10-23T19:48:50.609Z,52.09
2022-10-23T19:51:17.712Z,51.73
2022-10-23T19:53:45.177Z,52.04
2022-10-23T19:56:13.083Z,51.93
2022-10-23T19:58:40.745Z,51.71
2022-10-23T20:01:10.506Z,51.33
2022-10-23T20:03:38.785Z,50.24
2022-10-23T20:06:10.440Z,49.05
2022-10-23T20:08:37.542Z,48.42
2022-10-23T20:11:05.341Z,47.02
2022-10-23T20:13:32.625Z,49.36
2022-10-23T20:15:59.911Z,49.52
2022-10-23T20:18:27.123Z,48.77
2022-10-23T20:20:54.943Z,48.73
2022-10-23T20:23:23.464Z,47.98
2022-10-23T20:25:50.582Z,48.41
2022-10-23T20:28:17.762Z,49.63
2022-10-23T20:30:44.861Z,49.65
2022-10-23T20:33:11.902Z,50.37
2022-10-23T20:35:40.202Z,49.64
2022-10-23T20:38:08.661Z,49.98
2022-10-23T20:40:37.721Z,49.09
2022-10-23T20:43:04.880Z,49.43
2022-10-23T20:45:31.922Z,49.11
2022-10-23T20:47:59.184Z,48.75
2022-10-23T20:50:26.322Z,50.63
2022-10-23T20:52:53.462Z,50.44
2022-10-23T20:55:20.544Z,50.00
2022-10-23T20:57:49.119Z,51.14
2022-10-23T21:00:16.347Z,51.36
2022-10-23T21:02:47.022Z,51.02
2022-10-23T21:05:15.839Z,51.77
2022-10-23T21:07:42.864Z,51.62
2022-10-23T21:10:10.221Z,51.92
2022-10-23T21:12:37.342Z,52.04
2022-10-23T21:15:07.660Z,51.64
2022-10-23T21:17:34.764Z,51.34
2022-10-23T21:20:01.921Z,51.70
2022-10-23T21:22:28.979Z,51.04
2022-10-23T21:24:56.059Z,50.51
2022-10-23T21:27:23.061Z,50.40
2022-10-23T21:29:50.284Z,50.12
2022-10-23T21:32:18.761Z,50.24
2022-10-23T21:34:45.793Z,50.30
2022-10-23T21:37:14.204Z,50.55
2022-10-23T21:39:42.300Z,51.21
2022-10-23T21:42:09.393Z,50.32
2022-10-23T21:44:36.484Z,50.60
2022-10-23T21:47:03.801Z,51.47
2022-10-23T21:49:32.345Z,49.75
2022-10-23T21:51:59.422Z,49.93
2022-10-23T21:54:26.525Z,50.54
2022-10-23T21:56:53.838Z,51.79
2022-10-23T21:59:23.620Z,50.76
2022-10-23T22:01:50.879Z,49.72
2022-10-23T22:04:19.981Z,50.77
2022-10-23T22:06:50.119Z,51.14
2022-10-23T22:09:19.959Z,51.34
2022-10-23T22:11:48.921Z,51.47
2022-10-23T22:14:16.020Z,51.27
2022-10-23T22:16:43.341Z,51.17
2022-10-23T22:19:11.843Z,51.08
2022-10-23T22:21:39.905Z,50.80
2022-10-23T22:24:09.383Z,50.26
2022-10-23T22:26:39.041Z,48.44
2022-10-23T22:29:08.601Z,47.96
2022-10-23T22:31:36.761Z,47.90
2022-10-23T22:34:18.503Z,49.50
2022-10-23T22:36:53.722Z,50.59
2022-10-23T22:39:22.780Z,50.38
2022-10-23T22:41:49.963Z,50.85
2022-10-23T22:44:17.004Z,52.06
2022-10-23T22:46:45.062Z,52.92
2022-10-23T22:49:12.441Z,52.61
2022-10-23T22:51:39.815Z,52.19
2022-10-23T22:54:07.120Z,51.52
2022-10-23T22:56:36.209Z,49.94
2022-10-23T22:59:04.104Z,50.00
2022-10-23T23:01:34.308Z,50.74
2022-10-23T23:04:13.756Z,50.72
2022-10-23T23:06:47.594Z,51.43
2022-10-23T23:11:51.540Z,50.59
2022-10-23T23:14:23.085Z,51.17
2022-10-23T23:16:52.261Z,50.46
2022-10-23T23:19:19.429Z,50.97
2022-10-23T23:21:46.570Z,49.73
2022-10-23T23:24:13.950Z,50.28
2022-10-23T23:26:41.062Z,49.34
2022-10-23T23:29:09.521Z,51.19
2022-10-23T23:31:36.560Z,50.95
2022-10-23T23:34:03.621Z,51.04
2022-10-23T23:36:30.680Z,51.06
2022-10-23T23:38:58.557Z,51.88
2022-10-23T23:41:28.181Z,51.25
2022-10-23T23:43:56.779Z,51.70
2022-10-23T23:46:26.059Z,51.62
2022-10-23T23:48:53.181Z,51.60
2022-10-23T23:51:22.786Z,51.64
2022-10-23T23:53:51.123Z,51.31
2022-10-23T23:56:19.740Z,52.18
2022-10-23T23:58:47.804Z,51.58
